sensor_id;sensor_type;location;lat;lon;timestamp;pressure;altitude;pressure_sealevel;temperature;humidity
40650;BME280;26342;42.826;23.992;2023-05-19T00:00:34;95540.31;;;11.18;100.00
40650;BME280;26342;42.826;23.992;2023-05-19T00:03:02;95533.56;;;11.10;100.00
40650;BME280;26342;42.826;23.992;2023-05-19T00:05:28;95544.09;;;11.22;100.00
40650;BME280;26342;42.826;23.992;2023-05-19T00:07:58;95533.41;;;11.22;100.00
40650;BME280;26342;42.826;23.992;2023-05-19T00:10:25;95530.75;;;11.27;100.00
40650;BME280;26342;42.826;23.992;2023-05-19T00:12:56;95535.59;;;11.30;100.00
40650;BME280;26342;42.826;23.992;2023-05-19T00:15:21;95532.94;;;11.35;100.00
40650;BME280;26342;42.826;23.992;2023-05-19T00:17:47;95530.59;;;11.39;100.00
40650;BME280;26342;42.826;23.992;2023-05-19T00:20:12;95535.19;;;11.49;100.00
40650;BME280;26342;42.826;23.992;2023-05-19T00:22:38;95526.09;;;11.50;100.00
40650;BME280;26342;42.826;23.992;2023-05-19T00:25:04;95529.88;;;11.54;100.00
40650;BME280;26342;42.826;23.992;2023-05-19T00:27:30;95533.63;;;11.58;100.00
40650;BME280;26342;42.826;23.992;2023-05-19T00:29:55;95532.59;;;11.64;100.00
40650;BME280;26342;42.826;23.992;2023-05-19T00:32:21;95525.91;;;11.61;100.00
40650;BME280;26342;42.826;23.992;2023-05-19T00:34:46;95532.28;;;11.60;100.00
40650;BME280;26342;42.826;23.992;2023-05-19T00:37:12;95539.81;;;11.63;100.00
40650;BME280;26342;42.826;23.992;2023-05-19T00:39:38;95531.25;;;11.61;100.00
40650;BME280;26342;42.826;23.992;2023-05-19T00:42:03;95530.19;;;11.67;100.00
40650;BME280;26342;42.826;23.992;2023-05-19T00:44:30;95524.34;;;11.70;100.00
40650;BME280;26342;42.826;23.992;2023-05-19T00:46:56;95524.28;;;11.60;100.00
40650;BME280;26342;42.826;23.992;2023-05-19T00:49:22;95538.47;;;11.66;100.00
40650;BME280;26342;42.826;23.992;2023-05-19T00:51:47;95528.31;;;11.63;100.00
40650;BME280;26342;42.826;23.992;2023-05-19T00:54:14;95526.19;;;11.65;100.00
40650;BME280;26342;42.826;23.992;2023-05-19T00:56:40;95518.84;;;11.45;100.00
40650;BME280;26342;42.826;23.992;2023-05-19T00:59:05;95527.13;;;11.43;100.00
40650;BME280;26342;42.826;23.992;2023-05-19T01:01:31;95535.44;;;11.52;100.00
40650;BME280;26342;42.826;23.992;2023-05-19T01:03:57;95531.16;;;11.51;100.00
40650;BME280;26342;42.826;23.992;2023-05-19T01:06:23;95529.31;;;11.52;100.00
40650;BME280;26342;42.826;23.992;2023-05-19T01:08:50;95522.13;;;11.57;100.00
40650;BME280;26342;42.826;23.992;2023-05-19T01:11:15;95525.34;;;11.54;100.00
40650;BME280;26342;42.826;23.992;2023-05-19T01:13:42;95532.81;;;11.57;100.00
40650;BME280;26342;42.826;23.992;2023-05-19T01:16:16;95526.72;;;11.62;100.00
40650;BME280;26342;42.826;23.992;2023-05-19T01:19:04;95532.56;;;11.59;100.00
40650;BME280;26342;42.826;23.992;2023-05-19T01:24:22;95525.91;;;11.61;100.00
40650;BME280;26342;42.826;23.992;2023-05-19T01:32:19;95533.94;;;11.61;100.00
40650;BME280;26342;42.826;23.992;2023-05-19T01:34:48;95525.34;;;11.59;100.00
40650;BME280;26342;42.826;23.992;2023-05-19T01:37:16;95526.44;;;11.63;100.00
40650;BME280;26342;42.826;23.992;2023-05-19T01:39:43;95526.19;;;11.65;100.00
40650;BME280;26342;42.826;23.992;2023-05-19T01:42:09;95530.69;;;11.59;100.00
40650;BME280;26342;42.826;23.992;2023-05-19T01:44:36;95520.22;;;11.53;100.00
40650;BME280;26342;42.826;23.992;2023-05-19T01:47:02;95539.50;;;11.60;100.00
40650;BME280;26342;42.826;23.992;2023-05-19T01:49:28;95532.34;;;11.65;100.00
40650;BME280;26342;42.826;23.992;2023-05-19T01:51:53;95520.56;;;11.61;100.00
40650;BME280;26342;42.826;23.992;2023-05-19T01:54:19;95520.78;;;11.60;100.00
40650;BME280;26342;42.826;23.992;2023-05-19T01:56:51;95524.56;;;11.64;100.00
40650;BME280;26342;42.826;23.992;2023-05-19T02:00:03;95534.75;;;11.67;100.00
40650;BME280;26342;42.826;23.992;2023-05-19T02:02:55;95545.97;;;11.69;100.00
40650;BME280;26342;42.826;23.992;2023-05-19T02:05:33;95549.16;;;11.66;100.00
40650;BME280;26342;42.826;23.992;2023-05-19T02:08:19;95547.31;;;11.66;100.00
40650;BME280;26342;42.826;23.992;2023-05-19T02:10:50;95546.47;;;11.61;100.00
40650;BME280;26342;42.826;23.992;2023-05-19T02:13:19;95551.03;;;11.65;100.00
40650;BME280;26342;42.826;23.992;2023-05-19T02:15:47;95500.34;;;11.33;100.00
40650;BME280;26342;42.826;23.992;2023-05-19T02:18:14;95542.19;;;11.60;100.00
40650;BME280;26342;42.826;23.992;2023-05-19T02:20:42;95548.91;;;11.62;100.00
40650;BME280;26342;42.826;23.992;2023-05-19T02:23:07;95545.16;;;11.63;100.00
40650;BME280;26342;42.826;23.992;2023-05-19T02:25:33;95554.25;;;11.67;100.00
40650;BME280;26342;42.826;23.992;2023-05-19T02:27:58;95562.31;;;11.72;100.00
40650;BME280;26342;42.826;23.992;2023-05-19T02:30:24;95563.06;;;11.68;100.00
40650;BME280;26342;42.826;23.992;2023-05-19T02:32:50;95561.47;;;11.67;100.00
40650;BME280;26342;42.826;23.992;2023-05-19T02:35:18;95569.75;;;11.65;100.00
40650;BME280;26342;42.826;23.992;2023-05-19T02:37:43;95577.00;;;11.70;100.00
40650;BME280;26342;42.826;23.992;2023-05-19T02:40:09;95574.56;;;11.68;100.00
40650;BME280;26342;42.826;23.992;2023-05-19T02:42:35;95573.75;;;11.68;100.00
40650;BME280;26342;42.826;23.992;2023-05-19T02:45:00;95569.50;;;11.67;100.00
40650;BME280;26342;42.826;23.992;2023-05-19T02:47:25;95566.75;;;11.57;100.00
40650;BME280;26342;42.826;23.992;2023-05-19T02:49:51;95579.59;;;11.55;100.00
40650;BME280;26342;42.826;23.992;2023-05-19T02:52:16;95577.72;;;11.55;100.00
40650;BME280;26342;42.826;23.992;2023-05-19T02:54:42;95576.91;;;11.55;100.00
40650;BME280;26342;42.826;23.992;2023-05-19T02:57:07;95576.34;;;11.53;100.00
40650;BME280;26342;42.826;23.992;2023-05-19T02:59:32;95566.44;;;11.48;100.00
40650;BME280;26342;42.826;23.992;2023-05-19T03:02:00;95589.00;;;11.62;100.00
40650;BME280;26342;42.826;23.992;2023-05-19T03:04:26;95578.72;;;11.49;100.00
40650;BME280;26342;42.826;23.992;2023-05-19T03:06:52;95581.16;;;11.51;100.00
40650;BME280;26342;42.826;23.992;2023-05-19T03:09:18;95587.34;;;11.56;100.00
40650;BME280;26342;42.826;23.992;2023-05-19T03:11:44;95587.84;;;11.53;100.00
40650;BME280;26342;42.826;23.992;2023-05-19T03:14:09;95588.66;;;11.54;100.00
40650;BME280;26342;42.826;23.992;2023-05-19T03:16:36;95595.91;;;11.58;100.00
40650;BME280;26342;42.826;23.992;2023-05-19T03:19:01;95589.75;;;11.58;100.00
40650;BME280;26342;42.826;23.992;2023-05-19T03:21:26;95581.69;;;11.53;100.00
40650;BME280;26342;42.826;23.992;2023-05-19T03:23:52;95588.94;;;11.57;100.00
40650;BME280;26342;42.826;23.992;2023-05-19T03:26:18;95594.25;;;11.52;100.00
40650;BME280;26342;42.826;23.992;2023-05-19T03:28:44;95590.28;;;11.55;100.00
40650;BME280;26342;42.826;23.992;2023-05-19T03:31:09;95594.25;;;11.52;100.00
40650;BME280;26342;42.826;23.992;2023-05-19T03:33:35;95599.09;;;11.55;100.00
40650;BME280;26342;42.826;23.992;2023-05-19T03:36:00;95597.50;;;11.59;100.00
40650;BME280;26342;42.826;23.992;2023-05-19T03:38:26;95601.56;;;11.62;100.00
40650;BME280;26342;42.826;23.992;2023-05-19T03:40:51;95602.31;;;11.57;100.00
40650;BME280;26342;42.826;23.992;2023-05-19T03:43:17;95601.19;;;11.53;100.00
40650;BME280;26342;42.826;23.992;2023-05-19T03:45:43;95605.47;;;11.49;100.00
40650;BME280;26342;42.826;23.992;2023-05-19T03:48:08;95608.13;;;11.49;100.00
40650;BME280;26342;42.826;23.992;2023-05-19T03:50:34;95615.94;;;11.56;100.00
40650;BME280;26342;42.826;23.992;2023-05-19T03:53:02;95610.31;;;11.57;100.00
40650;BME280;26342;42.826;23.992;2023-05-19T03:55:27;95599.63;;;11.57;100.00
40650;BME280;26342;42.826;23.992;2023-05-19T03:57:54;95602.84;;;11.54;100.00
40650;BME280;26342;42.826;23.992;2023-05-19T04:00:20;95607.13;;;11.60;100.00
40650;BME280;26342;42.826;23.992;2023-05-19T04:02:45;95599.09;;;11.55;100.00
40650;BME280;26342;42.826;23.992;2023-05-19T04:05:11;95611.19;;;11.63;100.00
40650;BME280;26342;42.826;23.992;2023-05-19T04:07:36;95610.38;;;11.62;100.00
40650;BME280;26342;42.826;23.992;2023-05-19T04:10:05;95612.47;;;11.60;100.00
40650;BME280;26342;42.826;23.992;2023-05-19T04:12:31;95621.88;;;11.68;100.00
40650;BME280;26342;42.826;23.992;2023-05-19T04:14:57;95626.16;;;11.69;100.00
40650;BME280;26342;42.826;23.992;2023-05-19T04:17:22;95619.47;;;11.66;100.00
40650;BME280;26342;42.826;23.992;2023-05-19T04:19:53;95606.53;;;11.48;100.00
40650;BME280;26342;42.826;23.992;2023-05-19T04:22:19;95615.66;;;11.57;100.00
40650;BME280;26342;42.826;23.992;2023-05-19T04:24:44;95624.00;;;11.66;100.00
40650;BME280;26342;42.826;23.992;2023-05-19T04:27:11;95618.94;;;11.64;100.00
40650;BME280;26342;42.826;23.992;2023-05-19T04:29:37;95628.03;;;11.68;100.00
40650;BME280;26342;42.826;23.992;2023-05-19T04:32:04;95628.28;;;11.67;100.00
40650;BME280;26342;42.826;23.992;2023-05-19T04:34:35;95633.22;;;11.80;100.00
40650;BME280;26342;42.826;23.992;2023-05-19T04:37:05;95621.66;;;11.69;100.00
40650;BME280;26342;42.826;23.992;2023-05-19T04:39:31;95627.00;;;11.69;100.00
40650;BME280;26342;42.826;23.992;2023-05-19T04:41:56;95616.78;;;11.61;100.00
40650;BME280;26342;42.826;23.992;2023-05-19T04:44:22;95632.66;;;11.78;100.00
40650;BME280;26342;42.826;23.992;2023-05-19T04:46:47;95633.78;;;11.82;100.00
40650;BME280;26342;42.826;23.992;2023-05-19T04:49:14;95642.06;;;11.81;100.00
40650;BME280;26342;42.826;23.992;2023-05-19T04:51:39;95639.44;;;11.91;100.00
40650;BME280;26342;42.826;23.992;2023-05-19T04:54:07;95635.97;;;11.90;100.00
40650;BME280;26342;42.826;23.992;2023-05-19T04:56:33;95637.34;;;11.98;100.00
40650;BME280;26342;42.826;23.992;2023-05-19T04:58:58;95624.16;;;11.81;100.00
40650;BME280;26342;42.826;23.992;2023-05-19T05:01:24;95639.19;;;11.92;100.00
40650;BME280;26342;42.826;23.992;2023-05-19T05:03:51;95635.47;;;11.98;100.00
40650;BME280;26342;42.826;23.992;2023-05-19T05:06:22;95637.84;;;11.90;100.00
40650;BME280;26342;42.826;23.992;2023-05-19T05:08:48;95626.88;;;11.91;100.00
40650;BME280;26342;42.826;23.992;2023-05-19T05:11:13;95632.78;;;11.93;100.00
40650;BME280;26342;42.826;23.992;2023-05-19T05:13:39;95630.97;;;12.04;100.00
40650;BME280;26342;42.826;23.992;2023-05-19T05:16:05;95634.66;;;11.98;100.00
40650;BME280;26342;42.826;23.992;2023-05-19T05:18:33;95644.59;;;12.02;100.00
40650;BME280;26342;42.826;23.992;2023-05-19T05:20:59;95631.78;;;12.05;100.00
40650;BME280;26342;42.826;23.992;2023-05-19T05:23:25;95634.19;;;12.01;100.00
40650;BME280;26342;42.826;23.992;2023-05-19T05:25:51;95640.34;;;12.07;100.00
40650;BME280;26342;42.826;23.992;2023-05-19T05:28:16;95652.16;;;12.16;100.00
40650;BME280;26342;42.826;23.992;2023-05-19T05:30:41;95650.34;;;12.26;100.00
40650;BME280;26342;42.826;23.992;2023-05-19T05:33:07;95643.44;;;12.36;100.00
40650;BME280;26342;42.826;23.992;2023-05-19T05:35:33;95641.88;;;12.45;100.00
40650;BME280;26342;42.826;23.992;2023-05-19T05:37:59;95646.19;;;12.51;100.00
40650;BME280;26342;42.826;23.992;2023-05-19T05:40:25;95651.56;;;12.61;100.00
40650;BME280;26342;42.826;23.992;2023-05-19T05:42:51;95635.94;;;12.38;100.00
40650;BME280;26342;42.826;23.992;2023-05-19T05:45:17;95651.53;;;12.51;100.00
40650;BME280;26342;42.826;23.992;2023-05-19T05:47:42;95653.13;;;12.52;100.00
40650;BME280;26342;42.826;23.992;2023-05-19T05:50:09;95650.50;;;12.57;100.00
40650;BME280;26342;42.826;23.992;2023-05-19T05:52:35;95660.63;;;12.55;100.00
40650;BME280;26342;42.826;23.992;2023-05-19T05:55:04;95662.47;;;12.44;100.00
40650;BME280;26342;42.826;23.992;2023-05-19T05:57:30;95661.94;;;12.47;100.00
40650;BME280;26342;42.826;23.992;2023-05-19T05:59:56;95664.88;;;12.41;100.00
40650;BME280;26342;42.826;23.992;2023-05-19T06:02:21;95663.00;;;12.41;100.00
40650;BME280;26342;42.826;23.992;2023-05-19T06:04:47;95664.09;;;12.50;100.00
40650;BME280;26342;42.826;23.992;2023-05-19T06:07:12;95665.47;;;12.58;100.00
40650;BME280;26342;42.826;23.992;2023-05-19T06:09:37;95660.44;;;12.67;100.00
40650;BME280;26342;42.826;23.992;2023-05-19T06:12:03;95672.22;;;12.76;100.00
40650;BME280;26342;42.826;23.992;2023-05-19T06:14:29;95666.34;;;12.79;100.00
40650;BME280;26342;42.826;23.992;2023-05-19T06:16:54;95671.22;;;12.97;100.00
40650;BME280;26342;42.826;23.992;2023-05-19T06:19:20;95661.28;;;12.93;100.00
40650;BME280;26342;42.826;23.992;2023-05-19T06:21:45;95684.91;;;13.11;100.00
40650;BME280;26342;42.826;23.992;2023-05-19T06:24:10;95664.34;;;13.27;100.00
40650;BME280;26342;42.826;23.992;2023-05-19T06:26:36;95664.91;;;13.54;100.00
40650;BME280;26342;42.826;23.992;2023-05-19T06:29:01;95668.38;;;13.80;100.00
40650;BME280;26342;42.826;23.992;2023-05-19T06:31:27;95664.34;;;13.88;100.00
40650;BME280;26342;42.826;23.992;2023-05-19T06:33:53;95667.81;;;14.09;100.00
40650;BME280;26342;42.826;23.992;2023-05-19T06:36:18;95666.38;;;14.42;100.00
40650;BME280;26342;42.826;23.992;2023-05-19T06:38:43;95672.25;;;14.69;100.00
40650;BME280;26342;42.826;23.992;2023-05-19T06:41:09;95655.22;;;14.84;100.00
40650;BME280;26342;42.826;23.992;2023-05-19T06:43:34;95665.59;;;15.06;100.00
40650;BME280;26342;42.826;23.992;2023-05-19T06:46:00;95650.47;;;15.15;100.00
40650;BME280;26342;42.826;23.992;2023-05-19T06:48:25;95668.31;;;15.45;100.00
40650;BME280;26342;42.826;23.992;2023-05-19T06:50:51;95676.00;;;15.62;100.00
40650;BME280;26342;42.826;23.992;2023-05-19T06:53:18;95667.53;;;15.79;100.00
40650;BME280;26342;42.826;23.992;2023-05-19T06:55:43;95669.72;;;16.06;100.00
40650;BME280;26342;42.826;23.992;2023-05-19T06:58:09;95665.97;;;16.31;100.00
40650;BME280;26342;42.826;23.992;2023-05-19T07:00:34;95670.72;;;16.39;100.00
40650;BME280;26342;42.826;23.992;2023-05-19T07:03:00;95668.66;;;16.31;100.00
40650;BME280;26342;42.826;23.992;2023-05-19T07:05:26;95668.66;;;16.31;100.00
40650;BME280;26342;42.826;23.992;2023-05-19T07:07:51;95667.41;;;16.47;100.00
40650;BME280;26342;42.826;23.992;2023-05-19T07:10:16;95660.59;;;16.55;100.00
40650;BME280;26342;42.826;23.992;2023-05-19T07:12:42;95647.97;;;16.74;100.00
40650;BME280;26342;42.826;23.992;2023-05-19T07:15:08;95650.66;;;16.74;100.00
40650;BME280;26342;42.826;23.992;2023-05-19T07:17:33;95649.03;;;16.78;100.00
40650;BME280;26342;42.826;23.992;2023-05-19T07:19:59;95662.66;;;17.06;100.00
40650;BME280;26342;42.826;23.992;2023-05-19T07:22:25;95656.41;;;17.10;100.00
40650;BME280;26342;42.826;23.992;2023-05-19T07:24:51;95657.19;;;17.29;100.00
40650;BME280;26342;42.826;23.992;2023-05-19T07:27:17;95660.66;;;17.54;100.00
40650;BME280;26342;42.826;23.992;2023-05-19T07:29:42;95666.09;;;17.49;100.00
40650;BME280;26342;42.826;23.992;2023-05-19T07:32:08;95665.78;;;17.69;100.00
40650;BME280;26342;42.826;23.992;2023-05-19T07:34:33;95661.91;;;17.94;100.00
40650;BME280;26342;42.826;23.992;2023-05-19T07:36:58;95652.44;;;18.10;100.00
40650;BME280;26342;42.826;23.992;2023-05-19T07:39:24;95657.63;;;18.07;100.00
40650;BME280;26342;42.826;23.992;2023-05-19T07:41:53;95654.13;;;18.06;100.00
40650;BME280;26342;42.826;23.992;2023-05-19T07:44:20;95662.66;;;17.81;100.00
40650;BME280;26342;42.826;23.992;2023-05-19T07:46:45;95658.44;;;17.75;100.00
40650;BME280;26342;42.826;23.992;2023-05-19T07:49:10;95663.94;;;18.02;100.00
40650;BME280;26342;42.826;23.992;2023-05-19T07:51:36;95658.38;;;18.26;100.00
40650;BME280;26342;42.826;23.992;2023-05-19T07:54:01;95656.59;;;18.49;100.00
40650;BME280;26342;42.826;23.992;2023-05-19T07:56:27;95658.59;;;18.71;100.00
40650;BME280;26342;42.826;23.992;2023-05-19T07:58:52;95665.78;;;18.62;100.00
40650;BME280;26342;42.826;23.992;2023-05-19T08:01:18;95648.69;;;18.53;100.00
40650;BME280;26342;42.826;23.992;2023-05-19T08:03:43;95659.78;;;18.51;100.00
40650;BME280;26342;42.826;23.992;2023-05-19T08:06:08;95658.59;;;18.44;100.00
40650;BME280;26342;42.826;23.992;2023-05-19T08:08:34;95645.78;;;18.35;100.00
40650;BME280;26342;42.826;23.992;2023-05-19T08:11:03;95665.06;;;18.56;100.00
40650;BME280;26342;42.826;23.992;2023-05-19T08:13:29;95660.38;;;18.62;100.00
40650;BME280;26342;42.826;23.992;2023-05-19T08:15:54;95662.09;;;18.85;100.00
40650;BME280;26342;42.826;23.992;2023-05-19T08:18:24;95663.69;;;19.14;100.00
40650;BME280;26342;42.826;23.992;2023-05-19T08:20:49;95650.97;;;19.14;100.00
40650;BME280;26342;42.826;23.992;2023-05-19T08:23:15;95671.56;;;19.24;100.00
40650;BME280;26342;42.826;23.992;2023-05-19T08:25:41;95669.28;;;19.17;100.00
40650;BME280;26342;42.826;23.992;2023-05-19T08:28:07;95662.56;;;19.29;100.00
40650;BME280;26342;42.826;23.992;2023-05-19T08:30:32;95667.38;;;19.54;100.00
40650;BME280;26342;42.826;23.992;2023-05-19T08:32:58;95668.44;;;19.67;100.00
40650;BME280;26342;42.826;23.992;2023-05-19T08:35:23;95668.59;;;19.62;100.00
40650;BME280;26342;42.826;23.992;2023-05-19T08:37:48;95665.41;;;19.60;100.00
40650;BME280;26342;42.826;23.992;2023-05-19T08:40:17;95670.56;;;19.56;100.00
40650;BME280;26342;42.826;23.992;2023-05-19T08:42:46;95670.88;;;19.55;100.00
40650;BME280;26342;42.826;23.992;2023-05-19T08:45:12;95666.53;;;19.90;100.00
40650;BME280;26342;42.826;23.992;2023-05-19T08:47:40;95662.00;;;19.76;100.00
40650;BME280;26342;42.826;23.992;2023-05-19T08:50:06;95667.47;;;19.49;100.00
40650;BME280;26342;42.826;23.992;2023-05-19T08:57:47;95652.44;;;19.57;100.00
40650;BME280;26342;42.826;23.992;2023-05-19T09:00:15;95648.38;;;19.90;100.00
40650;BME280;26342;42.826;23.992;2023-05-19T09:02:41;95661.38;;;19.79;100.00
40650;BME280;26342;42.826;23.992;2023-05-19T09:05:07;95661.31;;;19.71;100.00
40650;BME280;26342;42.826;23.992;2023-05-19T09:07:34;95657.50;;;19.94;100.00
40650;BME280;26342;42.826;23.992;2023-05-19T09:10:00;95645.22;;;20.19;100.00
40650;BME280;26342;42.826;23.992;2023-05-19T09:12:26;95643.31;;;20.20;100.00
40650;BME280;26342;42.826;23.992;2023-05-19T09:14:52;95645.81;;;20.39;100.00
40650;BME280;26342;42.826;23.992;2023-05-19T09:17:18;95638.69;;;20.51;100.00
40650;BME280;26342;42.826;23.992;2023-05-19T09:19:43;95637.97;;;20.77;100.00
40650;BME280;26342;42.826;23.992;2023-05-19T09:22:09;95637.72;;;20.96;100.00
40650;BME280;26342;42.826;23.992;2023-05-19T09:24:35;95640.78;;;21.03;100.00
40650;BME280;26342;42.826;23.992;2023-05-19T09:27:02;95638.53;;;21.05;100.00
40650;BME280;26342;42.826;23.992;2023-05-19T09:29:27;95647.66;;;21.17;100.00
40650;BME280;26342;42.826;23.992;2023-05-19T09:31:54;95636.97;;;21.21;100.00
40650;BME280;26342;42.826;23.992;2023-05-19T09:34:24;95645.03;;;20.78;100.00
40650;BME280;26342;42.826;23.992;2023-05-19T09:36:51;95635.44;;;20.72;100.00
40650;BME280;26342;42.826;23.992;2023-05-19T09:39:21;95640.13;;;20.97;100.00
40650;BME280;26342;42.826;23.992;2023-05-19T09:41:53;95637.59;;;21.09;100.00
40650;BME280;26342;42.826;23.992;2023-05-19T09:44:22;95625.63;;;21.19;100.00
40650;BME280;26342;42.826;23.992;2023-05-19T09:46:52;95635.56;;;21.32;100.00
40650;BME280;26342;42.826;23.992;2023-05-19T09:49:22;95634.47;;;21.51;100.00
40650;BME280;26342;42.826;23.992;2023-05-19T09:51:53;95639.00;;;21.15;100.00
40650;BME280;26342;42.826;23.992;2023-05-19T09:54:19;95638.84;;;20.95;100.00
40650;BME280;26342;42.826;23.992;2023-05-19T09:56:50;95654.59;;;20.84;100.00
40650;BME280;26342;42.826;23.992;2023-05-19T09:59:17;95635.09;;;20.65;100.00
40650;BME280;26342;42.826;23.992;2023-05-19T10:01:43;95642.09;;;20.66;100.00
40650;BME280;26342;42.826;23.992;2023-05-19T10:04:12;95643.13;;;20.87;100.00
40650;BME280;26342;42.826;23.992;2023-05-19T10:06:38;95639.78;;;20.99;100.00
40650;BME280;26342;42.826;23.992;2023-05-19T10:09:05;95636.06;;;20.77;100.00
40650;BME280;26342;42.826;23.992;2023-05-19T10:11:30;95633.31;;;20.69;100.00
40650;BME280;26342;42.826;23.992;2023-05-19T10:13:56;95624.34;;;20.51;100.00
40650;BME280;26342;42.826;23.992;2023-05-19T10:16:24;95628.19;;;20.27;100.00
40650;BME280;26342;42.826;23.992;2023-05-19T10:18:51;95638.97;;;20.10;100.00
40650;BME280;26342;42.826;23.992;2023-05-19T10:21:19;95638.16;;;20.10;100.00
40650;BME280;26342;42.826;23.992;2023-05-19T10:23:44;95631.78;;;20.14;100.00
40650;BME280;26342;42.826;23.992;2023-05-19T10:26:10;95634.78;;;20.04;100.00
40650;BME280;26342;42.826;23.992;2023-05-19T10:28:38;95648.69;;;19.89;100.00
40650;BME280;26342;42.826;23.992;2023-05-19T10:31:08;95638.97;;;19.88;100.00
40650;BME280;26342;42.826;23.992;2023-05-19T10:33:59;95652.84;;;19.86;100.00
40650;BME280;26342;42.826;23.992;2023-05-19T10:36:47;95644.97;;;19.76;100.00
40650;BME280;26342;42.826;23.992;2023-05-19T10:41:57;95643.59;;;19.65;100.00
40650;BME280;26342;42.826;23.992;2023-05-19T10:46:53;95641.75;;;19.74;100.00
40650;BME280;26342;42.826;23.992;2023-05-19T10:49:20;95638.28;;;19.82;100.00
40650;BME280;26342;42.826;23.992;2023-05-19T10:51:46;95639.09;;;19.83;100.00
40650;BME280;26342;42.826;23.992;2023-05-19T10:54:12;95637.31;;;19.78;100.00
40650;BME280;26342;42.826;23.992;2023-05-19T10:56:42;95640.66;;;19.75;100.00
40650;BME280;26342;42.826;23.992;2023-05-19T10:59:29;95627.41;;;19.73;100.00
40650;BME280;26342;42.826;23.992;2023-05-19T11:01:55;95624.00;;;19.59;100.00
40650;BME280;26342;42.826;23.992;2023-05-19T11:04:38;95636.78;;;19.67;100.00
40650;BME280;26342;42.826;23.992;2023-05-19T11:07:03;95634.91;;;19.54;100.00
40650;BME280;26342;42.826;23.992;2023-05-19T11:09:29;95637.59;;;19.54;100.00
40650;BME280;26342;42.826;23.992;2023-05-19T11:12:01;95632.31;;;19.49;100.00
40650;BME280;26342;42.826;23.992;2023-05-19T11:14:31;95634.75;;;19.01;100.00
40650;BME280;26342;42.826;23.992;2023-05-19T11:16:58;95632.50;;;18.66;100.00
40650;BME280;26342;42.826;23.992;2023-05-19T11:19:27;95628.75;;;18.62;100.00
40650;BME280;26342;42.826;23.992;2023-05-19T11:21:53;95623.47;;;18.44;100.00
40650;BME280;26342;42.826;23.992;2023-05-19T11:24:33;95626.47;;;18.42;100.00
40650;BME280;26342;42.826;23.992;2023-05-19T11:27:16;95625.44;;;18.24;100.00
40650;BME280;26342;42.826;23.992;2023-05-19T11:29:42;95613.72;;;18.15;100.00
40650;BME280;26342;42.826;23.992;2023-05-19T11:32:08;95613.53;;;18.11;100.00
40650;BME280;26342;42.826;23.992;2023-05-19T11:34:36;95615.25;;;18.21;100.00
40650;BME280;26342;42.826;23.992;2023-05-19T11:37:03;95604.53;;;18.30;100.00
40650;BME280;26342;42.826;23.992;2023-05-19T11:39:30;95606.66;;;18.33;100.00
40650;BME280;26342;42.826;23.992;2023-05-19T11:41:56;95606.53;;;18.38;100.00
40650;BME280;26342;42.826;23.992;2023-05-19T11:44:21;95610.84;;;18.39;100.00
40650;BME280;26342;42.826;23.992;2023-05-19T11:46:47;95606.03;;;18.36;100.00
40650;BME280;26342;42.826;23.992;2023-05-19T11:49:13;95603.97;;;18.33;100.00
40650;BME280;26342;42.826;23.992;2023-05-19T11:51:42;95611.53;;;18.45;100.00
40650;BME280;26342;42.826;23.992;2023-05-19T11:54:09;95603.94;;;18.47;100.00
40650;BME280;26342;42.826;23.992;2023-05-19T11:56:39;95604.25;;;18.73;100.00
40650;BME280;26342;42.826;23.992;2023-05-19T11:59:06;95609.72;;;18.95;100.00
40650;BME280;26342;42.826;23.992;2023-05-19T12:01:32;95602.56;;;19.13;100.00
40650;BME280;26342;42.826;23.992;2023-05-19T12:03:58;95598.34;;;19.43;100.00
40650;BME280;26342;42.826;23.992;2023-05-19T12:06:27;95595.00;;;19.60;100.00
40650;BME280;26342;42.826;23.992;2023-05-19T12:08:53;95590.78;;;19.53;100.00
40650;BME280;26342;42.826;23.992;2023-05-19T12:11:19;95575.84;;;19.34;100.00
40650;BME280;26342;42.826;23.992;2023-05-19T12:13:46;95586.44;;;19.44;100.00
40650;BME280;26342;42.826;23.992;2023-05-19T12:16:11;95586.91;;;19.46;100.00
40650;BME280;26342;42.826;23.992;2023-05-19T12:18:37;95590.47;;;19.55;100.00
40650;BME280;26342;42.826;23.992;2023-05-19T12:21:03;95601.13;;;19.51;100.00
40650;BME280;26342;42.826;23.992;2023-05-19T12:23:29;95596.63;;;19.47;100.00
40650;BME280;26342;42.826;23.992;2023-05-19T12:25:58;95606.03;;;19.49;100.00
40650;BME280;26342;42.826;23.992;2023-05-19T12:28:25;95601.81;;;19.57;100.00
40650;BME280;26342;42.826;23.992;2023-05-19T12:30:50;95595.41;;;19.53;100.00
40650;BME280;26342;42.826;23.992;2023-05-19T12:33:20;95593.59;;;19.62;100.00
40650;BME280;26342;42.826;23.992;2023-05-19T12:35:47;95585.25;;;19.59;100.00
40650;BME280;26342;42.826;23.992;2023-05-19T12:38:14;95591.56;;;19.68;100.00
40650;BME280;26342;42.826;23.992;2023-05-19T12:40:41;95585.16;;;19.64;100.00
40650;BME280;26342;42.826;23.992;2023-05-19T12:43:06;95582.25;;;19.38;100.00
40650;BME280;26342;42.826;23.992;2023-05-19T12:45:38;95573.31;;;19.37;100.00
40650;BME280;26342;42.826;23.992;2023-05-19T12:48:12;95575.91;;;19.42;100.00
40650;BME280;26342;42.826;23.992;2023-05-19T12:50:41;95574.28;;;19.19;100.00
40650;BME280;26342;42.826;23.992;2023-05-19T12:53:08;95575.28;;;19.23;100.00
40650;BME280;26342;42.826;23.992;2023-05-19T12:55:42;95573.53;;;19.27;100.00
40650;BME280;26342;42.826;23.992;2023-05-19T12:58:07;95570.56;;;19.29;100.00